Time;durP1;ratioP1;P1;durP2;ratioP2;P2;SDS_P1;SDS_P2;PMS_P1;PMS_P2;Temp;Humidity;BMP_temperature;BMP_pressure;BME280_temperature;BME280_humidity;BME280_pressure;Samples;Min_cycle;Max_cycle;Signal;HPM_P1;HPM_P2
2023/06/11 07:52:09;;;;;;;1.58;1.48;;;;;;;-145.06;100.00;60892.56;5940204;23;20044;-93
2023/06/11 07:54:57;;;;;;;1.70;1.60;;;;;;;-145.06;100.00;60892.56;5926666;23;20017;-92
2023/06/11 08:01:16;;;;;;;1.70;1.60;;;;;;;-145.06;100.00;60892.56;5913922;23;20014;-91
2023/06/11 08:03:55;;;;;;;1.67;1.58;;;;;;;-145.06;100.00;60892.56;5896495;23;20014;-92
2023/06/11 08:06:37;;;;;;;1.60;1.50;;;;;;;-145.06;100.00;60892.56;5897948;23;20006;-93
2023/06/11 08:11:49;;;;;;;1.67;1.33;;;;;;;-145.06;100.00;60892.56;5923452;23;20021;-92
2023/06/11 08:14:28;;;;;;;1.85;1.52;;;;;;;-145.06;100.00;60892.56;5916999;23;20041;-90
2023/06/11 08:20:22;;;;;;;1.70;1.38;;;;;;;-145.06;100.00;60892.56;5905911;23;20001;-91
2023/06/11 08:23:01;;;;;;;1.23;1.13;;;;;;;-145.06;100.00;60892.56;5918668;23;19998;-91
2023/06/11 08:25:40;;;;;;;1.38;1.27;;;;;;;-145.06;100.00;60892.56;5918213;23;20002;-89
2023/06/11 08:28:20;;;;;;;;;;;;;;;-145.06;100.00;60892.56;5920328;23;20010;-92
2023/06/11 08:38:20;;;;;;;1.30;1.20;;;;;;;-145.06;100.00;60892.56;5922755;23;20017;-91
2023/06/11 08:40:59;;;;;;;1.50;1.23;;;;;;;-145.06;100.00;60892.56;5868125;23;20026;-91
2023/06/11 08:43:41;;;;;;;1.67;1.30;;;;;;;-145.06;100.00;60892.56;5865016;23;20010;-91
2023/06/11 08:46:22;;;;;;;1.60;1.40;;;;;;;-145.06;100.00;60892.56;5864310;23;20369;-91
2023/06/11 08:49:06;;;;;;;1.25;1.10;;;;;;;-145.06;100.00;60892.56;5867180;23;20028;-91
2023/06/11 08:51:47;;;;;;;1.38;1.20;;;;;;;-145.06;100.00;60892.56;5866718;23;20026;-92
2023/06/11 08:54:29;;;;;;;1.50;1.35;;;;;;;-145.06;100.00;60892.56;5866937;23;20022;-91
2023/06/11 08:57:33;;;;;;;1.88;1.30;;;;;;;-145.06;100.00;60892.56;5867782;23;20026;-91
2023/06/11 09:00:22;;;;;;;1.10;1.00;;;;;;;-145.06;100.00;60892.56;5866978;23;20010;-92
2023/06/11 09:03:04;;;;;;;1.52;1.42;;;;;;;-145.06;100.00;60892.56;5867424;23;20003;-90
2023/06/11 09:06:09;;;;;;;2.03;1.60;;;;;;;-145.06;100.00;60892.56;5866935;23;19999;-91
2023/06/11 09:11:40;;;;;;;1.70;1.48;;;;;;;-145.06;100.00;60892.56;5945490;23;20044;-91
2023/06/11 09:14:28;;;;;;;1.48;1.38;;;;;;;-145.06;100.00;60892.56;5923018;23;20009;-91
2023/06/11 09:17:15;;;;;;;1.60;1.15;;;;;;;-145.06;100.00;60892.56;5921742;23;20010;-89
2023/06/11 09:19:55;;;;;;;1.30;1.20;;;;;;;-145.06;100.00;60892.56;5919515;23;20001;-90
2023/06/11 09:22:56;;;;;;;;;;;;;;;-145.06;100.00;60892.56;5928493;23;20464;-92
2023/06/11 09:25:37;;;;;;;1.02;0.93;;;;;;;-145.06;100.00;60892.56;5924686;23;19901;-92
2023/06/11 09:28:16;;;;;;;1.45;1.05;;;;;;;-145.06;100.00;60892.56;5923166;23;20005;-92
2023/06/11 09:30:56;;;;;;;1.10;1.00;;;;;;;-145.06;100.00;60892.56;5921792;23;20006;-92
2023/06/11 09:33:36;;;;;;;1.08;0.98;;;;;;;-145.06;100.00;60892.56;5922571;23;20006;-93
2023/06/11 09:36:19;;;;;;;1.02;0.90;;;;;;;-145.06;100.00;60892.56;5924572;23;19998;-93
2023/06/11 09:38:59;;;;;;;1.00;0.90;;;;;;;-145.06;100.00;60892.56;5923279;23;20005;-93
2023/06/11 09:42:11;;;;;;;1.00;0.90;;;;;;;-145.06;100.00;60892.56;5924164;23;20001;-94
2023/06/11 09:44:51;;;;;;;1.55;1.10;;;;;;;-145.06;100.00;60892.56;5925262;23;19993;-93
2023/06/11 09:50:01;;;;;;;1.50;1.20;;;;;;;-145.06;100.00;60892.56;5951373;23;20039;-95
2023/06/11 09:52:42;;;;;;;0.80;0.80;;;;;;;-145.06;100.00;60892.56;5935517;23;20033;-92
2023/06/11 09:55:21;;;;;;;1.10;1.00;;;;;;;-145.06;100.00;60892.56;5951930;23;19998;-91
2023/06/11 09:58:03;;;;;;;0.82;0.82;;;;;;;-145.06;100.00;60892.56;5919039;23;20005;-91
2023/06/11 10:00:46;;;;;;;1.17;1.00;;;;;;;28.89;100.00;60892.56;5919439;23;20005;-92
2023/06/11 10:03:33;;;;;;;1.10;1.00;;;;;;;-145.06;100.00;60892.56;5922503;23;20001;-92
2023/06/11 10:06:24;;;;;;;1.20;1.10;;;;;;;-145.06;100.00;60892.56;5922427;23;20290;-91
2023/06/11 10:09:11;;;;;;;0.85;0.80;;;;;;;-145.06;100.00;60892.56;5921037;23;20310;-92
2023/06/11 10:11:52;;;;;;;1.45;1.00;;;;;;;-145.06;100.00;60892.56;5923255;23;20005;-92
2023/06/11 10:14:56;;;;;;;1.30;0.98;;;;;;;-145.06;100.00;60892.56;5924032;23;20001;-93
2023/06/11 10:17:36;;;;;;;1.20;1.10;;;;;;;-145.06;100.00;60892.56;5923372;23;20005;-93
2023/06/11 10:20:18;;;;;;;1.30;1.08;;;;;;;-145.06;100.00;60892.56;5955843;23;20310;-93
2023/06/11 10:23:33;;;;;;;1.10;1.00;;;;;;;104.26;100.00;60892.56;5922572;23;20084;-93
2023/06/11 10:26:37;;;;;;;0.80;0.80;;;;;;;-145.06;100.00;60892.56;5921846;23;20006;-93
2023/06/11 10:29:25;;;;;;;1.10;1.00;;;;;;;-145.06;100.00;60892.56;5923922;23;20001;-91
2023/06/11 10:32:15;;;;;;;0.82;0.82;;;;;;;104.26;100.00;60892.56;5924329;23;20005;-92
2023/06/11 10:35:03;;;;;;;1.08;0.88;;;;;;;-145.06;100.00;60892.56;5919595;23;20325;-91
2023/06/11 10:37:52;;;;;;;1.30;1.08;;;;;;;-145.06;100.00;60892.56;5927002;23;20014;-92
2023/06/11 10:40:38;;;;;;;0.95;0.85;;;;;;;-145.06;100.00;60892.56;5921258;23;20484;-91
2023/06/11 10:43:40;;;;;;;1.50;1.00;;;;;;;-145.06;100.00;60892.56;5920918;23;20001;-92
2023/06/11 10:46:19;;;;;;;0.90;0.80;;;;;;;-145.06;100.00;60892.56;5922914;23;20421;-92
2023/06/11 10:49:00;;;;;;;;;;;;;;;-145.06;100.00;60892.56;5921585;23;20010;-90
2023/06/11 10:51:39;;;;;;;0.70;0.70;;;;;;;-145.06;100.00;60892.56;5916993;23;19904;-91
2023/06/11 10:54:26;;;;;;;1.10;1.00;;;;;;;-145.06;100.00;60892.56;5900304;23;20433;-91
2023/06/11 10:57:12;;;;;;;1.00;0.90;;;;;;;30.24;100.00;60892.56;5899093;23;20002;-93
2023/06/11 10:59:51;;;;;;;1.05;0.75;;;;;;;-145.06;100.00;60892.56;5899250;23;20006;-90
2023/06/11 11:02:32;;;;;;;1.55;0.85;;;;;;;-145.06;100.00;60892.56;5897828;23;20096;-92
2023/06/11 11:05:19;;;;;;;0.95;0.80;;;;;;;-145.06;100.00;60892.56;5900263;23;20425;-93
2023/06/11 11:08:01;;;;;;;1.30;0.80;;;;;;;-145.06;100.00;60892.56;5900196;23;20047;-93
2023/06/11 11:10:40;;;;;;;1.05;1.00;;;;;;;-145.06;100.00;60892.56;5896457;23;19998;-93
2023/06/11 11:13:20;;;;;;;0.95;0.75;;;;;;;-145.06;100.00;60892.56;5889262;23;20006;-92
2023/06/11 11:16:00;;;;;;;1.00;0.90;;;;;;;-145.06;100.00;60892.56;5894856;23;20002;-92
2023/06/11 11:18:39;;;;;;;1.05;0.95;;;;;;;-145.06;100.00;60892.56;5894762;23;20085;-92
2023/06/11 11:21:18;;;;;;;0.80;0.80;;;;;;;31.47;100.00;60892.56;5900264;23;20005;-91
2023/06/11 11:23:59;;;;;;;0.90;0.90;;;;;;;-145.06;100.00;60892.56;5895232;23;20010;-92
2023/06/11 11:26:42;;;;;;;1.10;0.88;;;;;;;-145.06;100.00;60892.56;5929009;23;20006;-92
2023/06/11 11:29:23;;;;;;;0.80;0.80;;;;;;;-145.06;100.00;60892.56;5929324;23;20001;-91
2023/06/11 11:32:06;;;;;;;1.20;1.10;;;;;;;-145.06;100.00;60892.56;5898639;23;20006;-93
2023/06/11 11:34:45;;;;;;;1.38;1.23;;;;;;;31.12;100.00;60892.56;5925251;23;20290;-92
2023/06/11 11:37:28;;;;;;;1.30;1.20;;;;;;;-145.06;100.00;60892.56;5897102;23;20299;-93
2023/06/11 11:40:08;;;;;;;1.10;1.00;;;;;;;-145.06;100.00;60892.56;5896185;23;20002;-93
2023/06/11 11:42:47;;;;;;;1.40;1.17;;;;;;;-145.06;100.00;60892.56;5897971;23;20029;-92
2023/06/11 11:45:33;;;;;;;1.00;0.90;;;;;;;-145.06;100.00;60892.56;5897040;23;20002;-92
2023/06/11 11:48:17;;;;;;;1.95;1.20;;;;;;;-145.06;100.00;60892.56;5895044;23;20002;-94
2023/06/11 11:51:06;;;;;;;1.73;1.17;;;;;;;31.43;100.00;60892.56;5895577;23;20006;-92
2023/06/11 11:53:45;;;;;;;1.30;1.10;;;;;;;-145.06;100.00;60892.56;5892741;23;20002;-91
2023/06/11 11:56:32;;;;;;;1.55;1.15;;;;;;;-145.06;100.00;60892.56;5895678;23;20002;-91
2023/06/11 11:59:19;;;;;;;1.10;1.00;;;;;;;-145.06;100.00;60892.56;5890956;23;20010;-90
2023/06/11 12:02:01;;;;;;;1.35;1.15;;;;;;;-145.06;100.00;60892.56;5891160;23;20080;-93
2023/06/11 12:04:46;;;;;;;1.20;1.08;;;;;;;-145.06;100.00;60892.56;5893784;23;19998;-91
2023/06/11 12:07:31;;;;;;;1.17;1.08;;;;;;;-145.06;100.00;60892.56;5896249;23;20002;-96
2023/06/11 12:10:13;;;;;;;1.92;1.30;;;;;;;-145.06;100.00;60892.56;5926012;23;20033;-90
2023/06/11 12:12:53;;;;;;;1.20;1.10;;;;;;;-145.06;100.00;60892.56;5894525;23;20002;-91
2023/06/11 12:15:31;;;;;;;1.33;1.20;;;;;;;-145.06;100.00;60892.56;5889034;23;20034;-90
2023/06/11 12:18:11;;;;;;;0.93;0.90;;;;;;;-145.06;100.00;60892.56;5920981;23;20360;-90
2023/06/11 12:20:49;;;;;;;;;;;;;;;-145.06;100.00;60892.56;5890014;23;20005;-90
2023/06/11 12:23:28;;;;;;;1.50;1.05;;;;;;;-145.06;100.00;60892.56;5923579;23;20189;-91
2023/06/11 12:26:08;;;;;;;1.20;1.10;;;;;;;36.67;100.00;60892.56;5915833;23;20488;-92
2023/06/11 12:28:46;;;;;;;;;;;;;;;-145.06;100.00;60892.56;5919501;23;20002;-91
2023/06/11 12:31:25;;;;;;;2.05;1.25;;;;;;;-145.06;100.00;60892.56;5899659;23;19900;-91
2023/06/11 12:34:14;;;;;;;2.03;1.40;;;;;;;-145.06;100.00;60892.56;5928443;23;20006;-91
2023/06/11 12:36:53;;;;;;;2.80;1.35;;;;;;;-145.06;100.00;60892.56;5898507;23;19997;-91
2023/06/11 12:39:32;;;;;;;1.60;1.08;;;;;;;-145.06;100.00;60892.56;5895866;23;20014;-90
2023/06/11 12:42:48;;;;;;;;;;;;;;;-145.06;100.00;60892.56;5897416;23;19997;-93
2023/06/11 12:45:37;;;;;;;1.75;1.30;;;;;;;-145.06;100.00;60892.56;5846758;23;19901;-91
2023/06/11 12:48:19;;;;;;;1.60;1.20;;;;;;;-145.06;100.00;60892.56;5897463;23;20302;-91
2023/06/11 12:51:04;;;;;;;1.25;1.00;;;;;;;-145.06;100.00;60892.56;5948219;23;20432;-92
2023/06/11 12:53:57;;;;;;;1.05;0.95;;;;;;;-145.06;100.00;60892.56;5924716;23;20001;-93
2023/06/11 12:56:55;;;;;;;1.98;1.23;;;;;;;-145.06;100.00;60892.56;5925126;23;20002;-94
2023/06/11 13:03:21;;;;;;;1.20;1.10;;;;;;;-145.06;100.00;60892.56;5959348;23;20002;-93
2023/06/11 13:06:03;;;;;;;1.70;1.02;;;;;;;-145.06;100.00;60892.56;5925779;23;20001;-91
2023/06/11 13:08:42;;;;;;;1.17;1.00;;;;;;;-145.06;100.00;60892.56;5921503;23;20678;-91
2023/06/11 13:11:21;;;;;;;1.45;1.10;;;;;;;104.26;100.00;60892.56;5952905;23;20002;-93
2023/06/11 13:14:03;;;;;;;;;;;;;;;-145.06;100.00;60892.56;5925118;23;20001;-92
2023/06/11 13:16:42;;;;;;;1.25;1.10;;;;;;;-145.06;100.00;60892.56;5943872;23;20447;-92
2023/06/11 13:19:24;;;;;;;1.70;1.00;;;;;;;-145.06;100.00;60892.56;5955835;23;20009;-92
2023/06/11 13:22:09;;;;;;;1.17;1.08;;;;;;;-145.06;100.00;60892.56;5926087;23;19998;-93
2023/06/11 13:25:01;;;;;;;3.28;0.90;;;;;;;-145.06;100.00;60892.56;5929958;23;19993;-93
2023/06/11 13:30:08;;;;;;;0.80;0.75;;;;;;;-145.06;100.00;60892.56;5938608;23;19928;-93
2023/06/11 13:33:07;;;;;;;1.75;0.90;;;;;;;-145.06;100.00;60892.56;5926635;23;20014;-93
2023/06/11 13:35:56;;;;;;;1.38;0.90;;;;;;;-145.06;100.00;60892.56;5919848;23;20006;-93
2023/06/11 13:41:37;;;;;;;1.25;0.98;;;;;;;-145.06;100.00;60892.56;5924371;23;20033;-91
2023/06/11 13:44:36;;;;;;;1.25;0.90;;;;;;;-145.06;100.00;60892.56;5916873;23;20006;-91
2023/06/11 13:47:22;;;;;;;1.33;0.98;;;;;;;-145.06;100.00;60892.56;5917158;23;20425;-92
2023/06/11 13:50:01;;;;;;;1.05;0.98;;;;;;;-145.06;100.00;60892.56;5917168;23;20006;-90
2023/06/11 13:52:52;;;;;;;0.70;0.70;;;;;;;-145.06;100.00;60892.56;5920784;23;20001;-94
2023/06/11 13:55:34;;;;;;;1.63;1.10;;;;;;;-145.06;100.00;60892.56;5917067;23;19998;-92
2023/06/11 13:58:15;;;;;;;1.20;1.10;;;;;;;-145.06;100.00;60892.56;5914463;23;20038;-91
2023/06/11 14:00:54;;;;;;;1.30;1.20;;;;;;;-145.06;100.00;60892.56;5926064;23;20029;-90
2023/06/11 14:03:33;;;;;;;1.00;0.90;;;;;;;-145.06;100.00;60892.56;5913796;23;20006;-89
2023/06/11 14:06:12;;;;;;;;;;;;;;;-145.06;100.00;60892.56;5914402;23;20002;-91
2023/06/11 14:08:51;;;;;;;1.00;0.90;;;;;;;-145.06;100.00;60892.56;5915295;23;20767;-91
2023/06/11 14:11:30;;;;;;;;;;;;;;;-145.06;100.00;60892.56;5913790;23;20010;-91
2023/06/11 14:14:11;;;;;;;0.95;0.85;;;;;;;-145.06;100.00;60892.56;5916048;23;19901;-91
2023/06/11 14:16:50;;;;;;;0.80;0.80;;;;;;;-145.06;100.00;60892.56;5914399;23;20005;-92
2023/06/11 14:23:05;;;;;;;1.17;0.82;;;;;;;-145.06;100.00;60892.56;5923288;23;20006;-90
2023/06/11 14:26:43;;;;;;;0.90;0.80;;;;;;;-145.06;100.00;60892.56;5925600;23;20002;-92
2023/06/11 14:34:22;;;;;;;1.23;0.95;;;;;;;-145.06;100.00;60892.56;5892838;23;19917;-92
2023/06/11 14:45:18;;;;;;;;;;;;;;;;;;;;;
2023/06/11 14:48:15;;;;;;;0.90;0.80;;;;;;;-145.06;100.00;60892.56;5868829;23;20002;-95
2023/06/11 15:21:06;;;;;;;1.10;1.00;;;;;;;-145.06;100.00;60892.56;5920602;23;20370;-93
2023/06/11 15:23:54;;;;;;;;;;;;;;;-145.06;100.00;60892.56;5919151;23;20002;-92
2023/06/11 15:26:34;;;;;;;0.90;0.73;;;;;;;-145.06;100.00;60892.56;5915583;23;19901;-92
2023/06/11 15:29:13;;;;;;;1.98;1.20;;;;;;;-145.06;100.00;60892.56;5918373;23;20430;-92
2023/06/11 15:31:58;;;;;;;1.35;1.20;;;;;;;-145.06;100.00;60892.56;5920099;23;20001;-94
2023/06/11 15:34:37;;;;;;;1.13;1.02;;;;;;;-145.06;100.00;60892.56;5920184;23;20017;-94
2023/06/11 15:37:17;;;;;;;1.13;1.02;;;;;;;-145.06;100.00;60892.56;5918140;23;20294;-93
2023/06/11 15:39:55;;;;;;;1.23;1.10;;;;;;;32.26;100.00;60892.56;5916107;23;20006;-93
2023/06/11 15:42:35;;;;;;;1.52;1.30;;;;;;;-145.06;100.00;60892.56;5920877;23;20030;-92
2023/06/11 15:45:14;;;;;;;1.35;1.20;;;;;;;-145.06;100.00;60892.56;5921237;23;20002;-92
2023/06/11 15:47:54;;;;;;;0.90;0.90;;;;;;;-145.06;100.00;60892.56;5919675;23;20001;-93
2023/06/11 15:50:33;;;;;;;1.50;1.00;;;;;;;62.66;100.00;60892.56;5920085;23;20081;-92
2023/06/11 16:18:40;;;;;;;1.23;1.13;;;;;;;-145.06;100.00;60892.56;5843981;23;20011;-92
2023/06/11 16:21:37;;;;;;;1.13;1.00;;;;;;;-145.06;100.00;60892.56;5834662;23;20561;-92
2023/06/11 16:24:16;;;;;;;1.15;1.05;;;;;;;-145.06;100.00;60892.56;5815335;23;20004;-93
2023/06/11 18:58:32;;;;;;;1.23;0.93;;;;;;;-145.06;100.00;60892.56;5950665;23;20017;-91
2023/06/11 19:22:49;;;;;;;1.07;0.80;;;;;;;-145.06;100.00;60892.56;5894723;23;20019;-93
2023/06/11 19:45:18;;;;;;;1.50;1.00;;;;;;;28.65;100.00;60892.56;5790835;24;20527;-92
2023/06/11 19:48:23;;;;;;;;;;;;;;;;;;;;;
2023/06/11 19:51:45;;;;;;;;;;;;;;;;;;;;;
2023/06/11 19:55:27;;;;;;;;;;;;;;;;;;;;;
2023/06/11 19:58:14;;;;;;;0.80;0.80;;;;;;;-145.06;100.00;60892.56;5845501;23;20006;-93
2023/06/11 20:01:24;;;;;;;;;;;;;;;;;;;;;
2023/06/11 21:34:58;;;;;;;;;;;;;;;;;;;;;
2023/06/11 21:44:49;;;;;;;0.82;0.73;;;;;;;-145.06;100.00;60892.56;5896948;23;20005;-94
2023/06/11 21:47:47;;;;;;;1.73;1.10;;;;;;;-145.06;100.00;60892.56;5895995;23;20049;-93
2023/06/11 21:50:39;;;;;;;1.05;0.77;;;;;;;-145.06;100.00;60892.56;5895237;23;20318;-92
2023/06/11 21:54:06;;;;;;;0.95;0.80;;;;;;;-145.06;100.00;60892.56;5916726;23;20010;-93
2023/06/11 21:57:05;;;;;;;1.13;0.90;;;;;;;-145.06;100.00;60892.56;5895172;23;20032;-92
2023/06/11 22:00:25;;;;;;;;;;;;;;;;;;;;;
2023/06/11 22:03:38;;;;;;;;;;;;;;;;;;;;;
2023/06/11 22:06:44;;;;;;;0.98;0.88;;;;;;;24.86;100.00;60892.56;5926634;23;20006;-93
2023/06/11 22:09:36;;;;;;;0.80;0.70;;;;;;;24.72;100.00;60892.56;5895643;23;20310;-93
2023/06/11 22:12:51;;;;;;;1.25;1.15;;;;;;;24.62;100.00;60892.56;5895629;23;20077;-93
2023/06/11 22:15:56;;;;;;;1.88;1.00;;;;;;;-145.06;100.00;60892.56;5892234;23;20006;-92
2023/06/11 22:18:55;;;;;;;1.20;0.93;;;;;;;-145.06;100.00;60892.56;5895158;23;20006;-92
2023/06/11 22:21:48;;;;;;;1.00;0.90;;;;;;;-145.06;100.00;60892.56;5895359;23;20034;-92
2023/06/11 22:24:37;;;;;;;1.30;0.98;;;;;;;-145.06;100.00;60892.56;5895503;23;20238;-92
2023/06/11 22:30:52;;;;;;;1.58;0.98;;;;;;;-145.06;100.00;60892.56;5926694;23;20010;-94
2023/06/11 22:33:43;;;;;;;1.83;1.10;;;;;;;-145.06;100.00;60892.56;5894843;23;20445;-93
2023/06/11 22:36:50;;;;;;;1.05;0.88;;;;;;;-145.06;100.00;60892.56;5896009;23;20005;-93
2023/06/11 22:39:34;;;;;;;1.05;0.90;;;;;;;-145.06;100.00;60892.56;5916244;23;20009;-92
2023/06/11 22:42:23;;;;;;;1.33;1.10;;;;;;;-145.06;100.00;60892.56;5917969;23;20014;-92
2023/06/11 22:45:13;;;;;;;1.20;0.95;;;;;;;-145.06;100.00;60892.56;5897820;23;20002;-93
2023/06/11 22:48:32;;;;;;;1.08;0.98;;;;;;;-145.06;100.00;60892.56;5897169;23;20001;-93
2023/06/11 22:51:15;;;;;;;2.77;1.20;;;;;;;-145.06;100.00;60892.56;5897524;23;20014;-93
2023/06/11 22:54:12;;;;;;;;;;;;;;;;;;;;;
2023/06/11 22:57:02;;;;;;;1.70;1.20;;;;;;;-145.06;100.00;60892.56;5928885;23;20334;-92
2023/06/11 22:59:46;;;;;;;;;;;;;;;-145.06;100.00;60892.56;5897806;23;20006;-93
2023/06/11 23:02:36;;;;;;;0.93;0.80;;;;;;;-145.06;100.00;60892.56;5897987;23;19904;-95
2023/06/11 23:05:41;;;;;;;1.35;1.08;;;;;;;-145.06;100.00;60892.56;5897644;23;20006;-93
2023/06/11 23:08:25;;;;;;;1.42;1.10;;;;;;;-145.06;100.00;60892.56;5898514;23;20010;-94
2023/06/11 23:11:27;;;;;;;2.05;1.42;;;;;;;-145.06;100.00;60892.56;5898345;23;20077;-93
2023/06/11 23:17:42;;;;;;;1.20;1.00;;;;;;;-145.06;100.00;60892.56;5922995;23;20010;-93
2023/06/11 23:20:27;;;;;;;1.33;0.98;;;;;;;-145.06;100.00;60892.56;5897549;23;20014;-94
2023/06/11 23:23:08;;;;;;;1.92;1.20;;;;;;;-145.06;100.00;60892.56;5897680;23;20029;-93
2023/06/11 23:25:57;;;;;;;2.55;1.23;;;;;;;-145.06;100.00;60892.56;5897354;23;20005;-93
2023/06/11 23:32:00;;;;;;;;;;;;;;;;;;;;;
2023/06/11 23:34:54;;;;;;;1.38;1.10;;;;;;;-145.06;100.00;60892.56;5928855;23;20452;-95
2023/06/11 23:41:35;;;;;;;1.02;0.93;;;;;;;-145.06;100.00;60892.56;5907663;23;20017;-94
2023/06/11 23:44:40;;;;;;;1.20;1.00;;;;;;;-145.06;100.00;60892.56;5897744;23;20310;-93
2023/06/11 23:47:43;;;;;;;;;;;;;;;;;;;;;
2023/06/11 23:50:52;;;;;;;1.67;0.90;;;;;;;-145.06;100.00;60892.56;5928661;23;20013;-93
2023/06/11 23:54:27;;;;;;;0.98;0.82;;;;;;;-145.06;100.00;60892.56;5897814;23;20013;-94
2023/06/11 23:57:47;;;;;;;1.20;1.00;;;;;;;-145.06;100.00;60892.56;5897608;23;20010;-94
